Nearby METAR Reports

 

CYUL - Montreal/Dorval, Quebec, Canada
Distance from station: ENE 6km
Updated: 05/26/2018 02:00 EDT
Overcast
Overcast
 Wind from SSW
Wind: SSW 9 km/h
Temperature: 18°C
Dew Point: 16°C
Humidity: 88%
Barometer: 1004.4 hPa
Clouds: Overcast
Visibility: 24 km
Cloud details: Few Clouds 1829 m
Mostly cloudy 2438 m
Overcast 3353 m
2018/05/26 06:00 CYUL 260600Z 21005KT 15SM FEW060 BKN080 OVC110 18/16 A2966 RMK SC1AC5AC3 SC TR SLP044 DENSITY ALT 900FT
CWVQ - Ste Anne De Bell, Quebec, Canada
Distance from station: WSW 10km
Updated: 05/26/2018 02:00 EDT

 Wind from WSW
Wind: WSW 6 km/h
Temperature: 18°C
Dew Point: 15°C
Humidity: 83%
2018/05/26 06:00 CWVQ 260600Z AUTO 24003KT 18/15 RMK AO1 SLP043 T01790152 58007
 
CWTA - Mc Tavish (aut), Quebec, Canada
Distance from station: ENE 18km
Updated: 05/26/2018 02:00 EDT

 Wind from SSW
Wind: SSW 4 km/h
Temperature: 19°C
Dew Point: 16°C
Humidity: 83%
2018/05/26 06:00 CWTA 260600Z AUTO 21002KT 19/16 RMK AO1 8003 SLP041 T01900161 50004
CYMX - Montreal/Mirabel, Quebec, Canada
Distance from station: NW 29km
Updated: 05/26/2018 02:00 EDT
Overcast
Overcast
 Wind from W
Wind: W 9 km/h
Temperature: 18°C
Dew Point: 17°C
Humidity: 94%
Barometer: 1004.4 hPa
Clouds: Overcast
Visibility: 32 km
Cloud details: Few Clouds 305 m
Few Clouds 1524 m
Mostly cloudy 2743 m
Overcast 3962 m
2018/05/26 06:00 CYMX 260600Z 26005KT 210V290 20SM FEW010 FEW050 BKN090 OVC130 18/17 A2966 RMK SC1SC1AC3AC3 SLP045 DENSITY ALT 1000FT
 
CYHU - Saint Hubert Arp, Quebec, Canada
Distance from station: ENE 31km
Updated: 05/26/2018 02:00 EDT
Light rain, Overcast
Light rain, Overcast
 Wind from W
Wind: W 15 km/h
Temperature: 19°C
Dew Point: 17°C
Humidity: 88%
Barometer: 1004.1 hPa
Summary: Light rain
Clouds: Overcast
Visibility: 14 km
Cloud details: Overcast 3048 m
2018/05/26 06:00 CYHU 260600Z AUTO 26008KT 9SM -RA OVC100 19/17 A2965 RMK SLP040 DENSITY ALT 900FT
CWIT - St Clothilde (a, Quebec, Canada
Distance from station: SSE 33km
Updated: 12/31/1969 19:00 EST
NOT Current
unable to load CWIT data RC=404 Not Found
unable to load CWIT data RC=404 Not Found
 
 
CWIZ - L'acadie, Quebec, Canada
Distance from station: ESE 41km
Updated: 05/26/2018 02:00 EDT

 Wind from WSW
Wind: WSW 4 km/h
Temperature: 18°C
Dew Point: 15°C
Humidity: 83%
2018/05/26 06:00 CWIZ 260600Z AUTO 25002KT 18/15 RMK AO1 1PAST HR M P0000 T01780146 50003
CWHM - Varennes, Quebec, Canada
Distance from station: NE 45km
Updated: 10/25/2016 10:00 EDT
NOT Current

 Wind from W
Wind: W 19 km/h, Gust: 28 km/h
Temperature: 4°C
Wind Chill: 0°C
Dew Point: -2°C
Humidity: 65%
2016/10/25 14:00 CWHM 251400Z AUTO 28010G15KT 04/M02 RMK AO1 PK WND 28018/1302 T00391017
 
CWEW - L'assomption, Quebec, Canada
Distance from station: NE 50km
Updated: 05/26/2018 02:00 EDT

 Wind from WSW
Wind: WSW 7 km/h
Temperature: 20°C
Dew Point: 17°C
Humidity: 83%
2018/05/26 06:00 CWEW 260600Z AUTO 24004KT 20/17 RMK AO1 SLP040 T01960169 50001
CWBZ - St Anicet, Quebec, Canada
Distance from station: SW 52km
Updated: 05/26/2018 02:00 EDT

 Wind from WSW
Wind: WSW 7 km/h
Temperature: 17°C
Dew Point: 13°C
Humidity: 77%
2018/05/26 06:00 CWBZ 260600Z AUTO 25004KT 17/13 RMK AO1 SLP045 T01740134 57005
 
KFSO - Highgate, Vermont, USA
Distance from station: SE 79km
Updated: 05/26/2018 01:55 EDT
Overcast
Overcast
 Wind from S
Wind: S 7 km/h
Temperature: 18°C
Dew Point: 15°C
Humidity: 83%
Barometer: 1005.1 hPa
Clouds: Overcast
Visibility: 16 km
Cloud details: Partly cloudy 1829 m
Mostly cloudy 2134 m
Overcast 3658 m
2018/05/26 05:55 KFSO 260555Z AUTO 18004KT 10SM SCT060 BKN070 OVC120 18/15 A2968 RMK AO2 T01830146 10220 20173
CMGB - Granby, Quebec, Canada
Distance from station: E 81km
Updated: 05/26/2018 02:00 EDT

 Wind from S
Wind: S 2 km/h
Temperature: 17°C
Dew Point: 16°C
Humidity: 94%
2018/05/26 06:00 CMGB 260600Z AUTO 19001KT 17/16 RMK AO1 SLP044 T01740156 58002
 
CWJT - St Jovite (autob, Quebec, Canada
Distance from station: NW 88km
Updated: 05/26/2018 02:00 EDT

 Wind from calm
Wind: Calm
Temperature: 17°C
Dew Point: 16°C
Humidity: 94%
2018/05/26 06:00 CWJT 260600Z AUTO 00000KT 17/16 RMK AO1 SLP039 T01700159 56006
CWFQ - Frelighsburg, Quebec, Canada
Distance from station: ESE 90km
Updated: 05/26/2018 02:00 EDT

 Wind from SSE
Wind: SSE 6 km/h
Temperature: 17°C
Dew Point: 15°C
Humidity: 88%
2018/05/26 06:00 CWFQ 260600Z AUTO 16003KT 17/15 RMK AO1 SLP047 T01660146 58006
 
KPBG - Plattsburgh Afb, New York, USA
Distance from station: SSE 93km
Updated: 05/26/2018 01:53 EDT
Few Clouds
Few Clouds
 Wind from calm
Wind: Calm
Temperature: 19°C
Dew Point: 12°C
Humidity: 64%
Barometer: 1004.7 hPa
Clouds: Few Clouds
Visibility: 16 km
Cloud details: Few Clouds 3353 m
2018/05/26 05:53 KPBG 260553Z AUTO 00000KT 10SM FEW110 19/12 A2967 RMK AO2 SLP048 60001 T01890117 10222 20161 56010
KMSS - Massena, New York, USA
Distance from station: SW 100km
Updated: 05/26/2018 01:53 EDT
Mostly cloudy
Mostly cloudy
 Wind from SSW
Wind: SSW 9 km/h
Temperature: 17°C
Dew Point: 14°C
Humidity: 83%
Barometer: 1005.8 hPa
Clouds: Mostly cloudy
Visibility: 16 km
Cloud details: Partly cloudy 2134 m
Mostly cloudy 2743 m
2018/05/26 05:53 KMSS 260553Z AUTO 21005KT 10SM SCT070 BKN090 17/14 A2970 RMK AO2 SLP056 60000 T01670144 10189 20161 56005 $
 
CWBS - Lac St Pierre (a, Quebec, Canada
Distance from station: NE 106km
Updated: 05/26/2018 02:00 EDT

 Wind from SSW
Wind: SSW 19 km/h
Temperature: 17°C
Dew Point: 16°C
Humidity: 94%
2018/05/26 06:00 CWBS 260600Z AUTO 20010KT 17/16 RMK AO1 T01700157
KBTV - Burlington, Vermont, USA
Distance from station: SSE 121km
Updated: 05/26/2018 01:54 EDT
Overcast
Overcast
 Wind from calm
Wind: Calm
Temperature: 18°C
Dew Point: 16°C
Humidity: 88%
Barometer: 1005.4 hPa
Clouds: Overcast
Visibility: 16 km
Cloud details: Partly cloudy 1524 m
Mostly cloudy 2896 m
Overcast 3353 m
2018/05/26 05:54 KBTV 260554Z AUTO 00000KT 10SM SCT050 BKN095 OVC110 18/16 A2969 RMK AO2 SLP052 60004 T01780161 10200 20178 56013
 
KSLK - Saranac Lake, New York, USA
Distance from station: SSW 121km
Updated: 05/26/2018 01:51 EDT
Overcast
Overcast
 Wind from SW
Wind: SW 17 km/h
Temperature: 17°C
Dew Point: 11°C
Humidity: 68%
Barometer: 1007.8 hPa
Clouds: Overcast
Visibility: 16 km
Cloud details: Overcast 1676 m
2018/05/26 05:51 KSLK 260551Z AUTO 23009KT 10SM OVC055 17/11 A2976 RMK AO2 SLP070 60002 T01670111 10172 20139 55006
CWNQ - Nicolet (autob), Quebec, Canada
Distance from station: NE 123km
Updated: 05/26/2018 02:00 EDT

 Wind from SSW
Wind: SSW 11 km/h
Temperature: 19°C
Dew Point: 16°C
Humidity: 83%
2018/05/26 06:00 CWNQ 260600Z AUTO 21006KT 19/16 RMK AO1 SLP025 T01900164 58005
 
KMWN - Mount Washington, New Hampshire, USA
Distance from station: SE 237km
Updated: 05/26/2018 01:48 EDT
Rain showers, Fog, Overcast
Rain showers, Fog, Overcast
 Wind from W
Wind: W 70 km/h, Gust: 87 km/h
Temperature: 7°C
Wind Chill: 1°C
Dew Point: 7°C
Humidity: 100%
Summary: Rain showers, Fog
Clouds: Overcast
Visibility: 0 km
Cloud details: Overcast 0 m
2018/05/26 05:48 KMWN 260548Z 28038G47KT 0SM SHRA FG VV000 07/07 RMK 60035 10094 20068
CYVR - Vancouver Intl A, British Columbia, Canada
Distance from station: NW 3676km
Updated: 05/26/2018 02:00 EDT
Few Clouds
Few Clouds
 Wind from SE
Wind: SE 7 km/h
Temperature: 14°C
Dew Point: 10°C
Humidity: 77%
Barometer: 1016.3 hPa
Clouds: Few Clouds
Visibility: 48 km
Cloud details: Few Clouds 2134 m
2018/05/26 06:00 CYVR 260600Z 13004KT 30SM FEW070 14/10 A3001 RMK AC2 SLP163